createdAt,value
2022-10-19T00:02:17.580Z,90.15
2022-10-19T00:04:47.584Z,90.01
2022-10-19T00:07:16.396Z,90.06
2022-10-19T00:09:45.869Z,90.11
2022-10-19T00:12:14.497Z,90.09
2022-10-19T00:14:43.190Z,90.09
2022-10-19T00:17:12.978Z,89.87
2022-10-19T00:19:41.547Z,89.86
2022-10-19T00:22:13.940Z,90.01
2022-10-19T00:24:42.944Z,89.91
2022-10-19T00:27:11.927Z,89.91
2022-10-19T00:29:40.529Z,89.85
2022-10-19T00:32:09.123Z,90.58
2022-10-19T00:34:39.051Z,90.05
2022-10-19T00:37:07.981Z,90.23
2022-10-19T00:39:38.021Z,90.33
2022-10-19T00:42:07.172Z,90.32
2022-10-19T00:45:13.906Z,90.19
2022-10-19T00:47:44.308Z,90.46
2022-10-19T00:50:17.454Z,90.21
2022-10-19T00:52:46.313Z,90.42
2022-10-19T00:55:16.777Z,90.54
2022-10-19T00:57:45.506Z,90.51
2022-10-19T01:00:15.226Z,90.57
2022-10-19T01:02:43.858Z,90.28
2022-10-19T01:05:14.521Z,90.11
2022-10-19T01:07:43.192Z,90.11
2022-10-19T01:10:13.551Z,90.13
2022-10-19T01:13:21.052Z,90.02
2022-10-19T01:16:04.188Z,89.83
2022-10-19T01:18:56.014Z,89.55
2022-10-19T01:21:30.164Z,89.37
2022-10-19T01:24:51.796Z,89.02
2022-10-19T01:27:49.092Z,89.02
2022-10-19T01:30:35.325Z,89.00
2022-10-19T01:33:28.476Z,88.86
2022-10-19T01:36:10.507Z,89.00
2022-10-19T01:38:52.775Z,88.71
2022-10-19T01:41:34.802Z,88.40
2022-10-19T01:44:14.281Z,88.50
2022-10-19T01:46:51.358Z,88.61
2022-10-19T01:49:28.340Z,88.51
2022-10-19T01:52:03.052Z,88.11
2022-10-19T01:54:38.253Z,88.40
2022-10-19T01:57:13.283Z,88.24
2022-10-19T01:59:44.650Z,88.26
2022-10-19T02:02:18.265Z,88.62
2022-10-19T02:04:48.133Z,88.56
2022-10-19T02:07:18.146Z,88.59
2022-10-19T02:09:46.763Z,88.08
2022-10-19T02:12:17.482Z,88.25
2022-10-19T02:14:52.268Z,88.07
2022-10-19T02:17:28.239Z,88.23
2022-10-19T02:19:58.098Z,88.10
2022-10-19T02:22:26.691Z,87.70
2022-10-19T02:24:55.377Z,87.62
2022-10-19T02:27:24.455Z,87.52
2022-10-19T02:29:54.712Z,87.31
2022-10-19T02:32:25.552Z,87.42
2022-10-19T02:34:54.450Z,87.65
2022-10-19T02:37:25.757Z,88.08
2022-10-19T02:39:54.791Z,88.06
2022-10-19T02:42:35.867Z,88.00
2022-10-19T02:45:14.492Z,88.03
2022-10-19T02:47:52.334Z,88.10
2022-10-19T02:50:23.457Z,88.22
2022-10-19T02:52:52.531Z,88.29
2022-10-19T02:55:22.697Z,88.26
2022-10-19T02:57:51.418Z,88.16
2022-10-19T03:00:20.211Z,88.22
2022-10-19T03:02:50.184Z,88.10
2022-10-19T03:05:19.069Z,88.32
2022-10-19T03:07:47.963Z,88.17
2022-10-19T03:10:16.804Z,88.31
2022-10-19T03:12:45.439Z,88.49
2022-10-19T03:15:17.241Z,88.28
2022-10-19T03:17:46.468Z,87.87
2022-10-19T03:20:16.614Z,88.19
2022-10-19T03:22:45.248Z,88.12
2022-10-19T03:25:14.056Z,88.05
2022-10-19T03:27:42.742Z,88.13
2022-10-19T03:30:12.453Z,88.05
2022-10-19T03:32:41.091Z,88.16
2022-10-19T03:35:10.201Z,87.82
2022-10-19T03:37:45.091Z,87.71
2022-10-19T03:40:13.937Z,87.77
2022-10-19T03:42:42.662Z,87.20
2022-10-19T03:45:12.521Z,87.14
2022-10-19T03:47:41.292Z,86.98
2022-10-19T03:50:11.455Z,86.82
2022-10-19T03:52:41.498Z,86.95
2022-10-19T03:55:11.581Z,86.85
2022-10-19T03:57:40.643Z,86.41
2022-10-19T04:00:11.741Z,86.42
2022-10-19T04:02:42.941Z,86.06
2022-10-19T04:05:11.744Z,86.21
2022-10-19T04:07:42.116Z,86.06
2022-10-19T04:10:11.123Z,85.94
2022-10-19T04:12:40.943Z,86.02
2022-10-19T04:15:11.253Z,86.15
2022-10-19T04:17:39.898Z,85.70
2022-10-19T04:20:10.781Z,86.12
2022-10-19T04:22:42.516Z,86.03
2022-10-19T04:25:20.941Z,86.03
2022-10-19T04:28:02.843Z,85.71
2022-10-19T04:30:34.743Z,85.89
2022-10-19T04:33:03.407Z,85.91
2022-10-19T04:35:32.727Z,85.92
2022-10-19T04:38:02.809Z,85.76
2022-10-19T04:40:31.529Z,86.12
2022-10-19T04:43:00.116Z,86.20
2022-10-19T04:45:28.757Z,86.17
2022-10-19T04:47:57.988Z,85.98
2022-10-19T04:50:27.146Z,85.92
2022-10-19T04:52:57.801Z,85.90
2022-10-19T04:55:28.087Z,85.65
2022-10-19T04:57:56.795Z,85.78
2022-10-19T05:00:25.394Z,85.69
2022-10-19T05:02:54.092Z,85.67
2022-10-19T05:05:22.660Z,85.72
2022-10-19T05:07:51.339Z,85.67
2022-10-19T05:10:20.266Z,85.60
2022-10-19T05:12:50.437Z,86.38
2022-10-19T05:15:19.241Z,86.06
2022-10-19T05:17:48.032Z,85.71
2022-10-19T05:20:16.896Z,85.62
2022-10-19T05:22:45.639Z,85.66
2022-10-19T05:25:14.586Z,85.70
2022-10-19T05:27:43.319Z,85.36
2022-10-19T05:30:14.657Z,85.29
2022-10-19T05:32:43.407Z,85.48
2022-10-19T05:35:12.245Z,85.50
2022-10-19T05:37:41.093Z,85.60
2022-10-19T05:40:11.779Z,85.67
2022-10-19T05:42:41.504Z,85.65
2022-10-19T05:45:12.653Z,85.67
2022-10-19T05:47:41.458Z,85.73
2022-10-19T05:50:11.017Z,85.75
2022-10-19T05:52:39.676Z,85.77
2022-10-19T05:55:10.028Z,85.61
2022-10-19T05:57:39.223Z,85.57
2022-10-19T06:00:09.563Z,85.65
2022-10-19T06:02:42.074Z,85.78
2022-10-19T06:05:11.369Z,85.65
2022-10-19T06:07:40.371Z,85.41
2022-10-19T06:10:10.851Z,85.86
2022-10-19T06:12:40.779Z,85.75
2022-10-19T06:15:10.885Z,85.32
2022-10-19T06:17:41.188Z,85.38
2022-10-19T06:20:11.079Z,85.48
2022-10-19T06:22:39.758Z,85.09
2022-10-19T06:25:09.749Z,85.51
2022-10-19T06:27:38.682Z,85.30
2022-10-19T06:30:09.662Z,85.54
2022-10-19T06:32:38.666Z,85.72
2022-10-19T06:35:10.030Z,86.07
2022-10-19T06:37:39.136Z,85.72
2022-10-19T06:40:09.409Z,85.21
2022-10-19T06:42:39.344Z,85.15
2022-10-19T06:45:10.614Z,85.34
2022-10-19T06:47:39.640Z,85.88
2022-10-19T06:50:10.759Z,86.04
2022-10-19T06:52:40.806Z,85.52
2022-10-19T06:55:10.919Z,85.63
2022-10-19T06:57:41.119Z,85.62
2022-10-19T07:00:11.407Z,85.42
2022-10-19T07:02:40.256Z,85.71
2022-10-19T07:05:11.512Z,85.77
2022-10-19T07:07:40.269Z,86.18
2022-10-19T07:10:09.681Z,85.81
2022-10-19T07:12:38.416Z,85.34
2022-10-19T07:15:08.354Z,86.07
2022-10-19T07:17:37.163Z,86.37
2022-10-19T07:20:07.255Z,85.52
2022-10-19T07:22:37.458Z,86.14
2022-10-19T07:25:07.153Z,86.07
2022-10-19T07:27:41.082Z,86.16
2022-10-19T07:30:12.732Z,85.86
2022-10-19T07:32:45.959Z,85.09
2022-10-19T07:35:16.342Z,85.20
2022-10-19T07:37:55.763Z,86.12
2022-10-19T07:40:26.397Z,85.26
2022-10-19T07:42:56.248Z,85.89
2022-10-19T07:45:28.496Z,85.64
2022-10-19T07:48:00.080Z,85.56
2022-10-19T07:50:30.862Z,86.10
2022-10-19T07:53:02.749Z,86.87
2022-10-19T07:55:31.964Z,86.48
2022-10-19T07:58:02.134Z,87.36
2022-10-19T08:00:36.807Z,87.22
2022-10-19T08:06:02.681Z,87.26
2022-10-19T08:08:54.711Z,86.81
2022-10-19T08:11:27.141Z,86.45
2022-10-19T08:13:58.679Z,85.90
2022-10-19T08:16:32.865Z,86.11
2022-10-19T08:19:07.096Z,87.00
2022-10-19T08:21:39.522Z,86.23
2022-10-19T08:24:10.143Z,86.32
2022-10-19T08:26:41.256Z,86.83
2022-10-19T08:29:18.440Z,86.10
2022-10-19T08:31:50.430Z,85.71
2022-10-19T08:34:20.400Z,85.83
2022-10-19T08:36:49.634Z,86.18
2022-10-19T08:39:20.724Z,86.25
2022-10-19T08:42:03.188Z,86.12
2022-10-19T08:45:27.935Z,85.85
2022-10-19T08:48:25.309Z,85.83
2022-10-19T08:50:55.625Z,86.05
2022-10-19T08:53:37.250Z,85.70
2022-10-19T08:56:38.856Z,85.01
2022-10-19T08:59:25.867Z,84.37
2022-10-19T09:01:59.552Z,84.75
2022-10-19T09:04:36.500Z,84.94
2022-10-19T09:07:25.116Z,85.26
2022-10-19T09:10:05.315Z,84.95
2022-10-19T09:12:46.349Z,85.73
2022-10-19T09:15:19.661Z,84.85
2022-10-19T09:17:48.753Z,85.30
2022-10-19T09:20:21.630Z,85.97
2022-10-19T09:23:08.641Z,86.18
2022-10-19T09:25:40.947Z,86.74
2022-10-19T09:28:44.713Z,86.91
2022-10-19T09:31:21.138Z,86.84
2022-10-19T09:33:56.775Z,87.10
2022-10-19T09:36:50.039Z,87.18
2022-10-19T09:39:21.341Z,87.25
2022-10-19T09:41:55.728Z,87.11
2022-10-19T09:44:26.978Z,87.59
2022-10-19T09:47:04.355Z,87.87
2022-10-19T09:49:44.954Z,88.18
2022-10-19T09:52:35.903Z,87.81
2022-10-19T09:55:08.063Z,88.08
2022-10-19T09:57:44.107Z,88.50
2022-10-19T10:00:22.887Z,88.27
2022-10-19T10:02:53.547Z,87.86
2022-10-19T10:05:33.024Z,87.76
2022-10-19T10:08:02.539Z,87.42
2022-10-19T10:10:38.453Z,87.53
2022-10-19T10:13:07.695Z,86.81
2022-10-19T10:15:46.160Z,86.40
2022-10-19T10:18:18.420Z,86.28
2022-10-19T10:21:06.789Z,85.99
2022-10-19T10:23:37.888Z,85.31
2022-10-19T10:26:18.296Z,84.41
2022-10-19T10:28:51.848Z,83.38
2022-10-19T10:31:27.488Z,83.88
2022-10-19T10:34:10.897Z,82.74
2022-10-19T10:36:55.137Z,80.74
2022-10-19T10:39:27.195Z,80.58
2022-10-19T10:41:58.883Z,81.09
2022-10-19T10:44:31.207Z,81.01
2022-10-19T10:47:05.815Z,80.92
2022-10-19T10:49:38.377Z,80.95
2022-10-19T10:52:11.881Z,80.77
2022-10-19T10:54:41.032Z,80.70
2022-10-19T10:57:16.916Z,81.19
2022-10-19T10:59:56.917Z,80.97
2022-10-19T11:02:47.610Z,81.60
2022-10-19T11:05:25.191Z,81.42
2022-10-19T11:08:02.477Z,80.01
2022-10-19T11:10:36.878Z,79.58
2022-10-19T11:13:16.446Z,79.64
2022-10-19T11:15:56.633Z,79.86
2022-10-19T11:18:33.818Z,78.57
2022-10-19T11:21:10.857Z,78.75
2022-10-19T11:23:55.345Z,79.04
2022-10-19T11:26:45.137Z,78.58
2022-10-19T11:29:35.237Z,78.66
2022-10-19T11:32:12.472Z,77.74
2022-10-19T11:35:01.352Z,78.20
2022-10-19T11:37:50.259Z,78.35
2022-10-19T11:40:42.750Z,78.32
2022-10-19T11:43:33.085Z,77.98
2022-10-19T11:46:17.447Z,77.87
2022-10-19T11:49:07.451Z,77.99
2022-10-19T11:51:49.952Z,77.52
2022-10-19T11:54:36.281Z,77.94
2022-10-19T11:57:14.524Z,78.32
2022-10-19T12:00:13.903Z,77.43
2022-10-19T12:03:26.536Z,77.53
2022-10-19T12:06:11.049Z,76.77
2022-10-19T12:09:04.903Z,77.51
2022-10-19T12:11:58.399Z,77.45
2022-10-19T12:14:33.304Z,77.65
2022-10-19T12:17:10.410Z,78.28
2022-10-19T12:19:47.870Z,78.14
2022-10-19T12:22:21.993Z,76.48
2022-10-19T12:24:55.512Z,76.56
2022-10-19T12:27:32.002Z,76.20
2022-10-19T12:30:09.051Z,76.04
2022-10-19T12:32:54.219Z,76.17
2022-10-19T12:35:45.225Z,76.79
2022-10-19T12:38:23.425Z,77.12
2022-10-19T12:41:05.210Z,77.26
2022-10-19T12:43:46.302Z,77.49
2022-10-19T12:46:37.840Z,77.26
2022-10-19T12:49:38.574Z,77.14
2022-10-19T12:52:09.210Z,77.09
2022-10-19T12:54:42.045Z,76.27
2022-10-19T12:57:38.574Z,75.63
2022-10-19T13:00:22.409Z,74.92
2022-10-19T13:03:02.537Z,75.18
2022-10-19T13:05:34.104Z,74.90
2022-10-19T13:08:09.242Z,74.79
2022-10-19T13:10:42.069Z,74.98
2022-10-19T13:14:03.882Z,75.32
2022-10-19T13:17:04.163Z,75.08
2022-10-19T13:19:34.093Z,75.12
2022-10-19T13:22:29.846Z,75.20
2022-10-19T13:25:31.842Z,74.96
2022-10-19T13:28:40.515Z,75.78
2022-10-19T13:31:30.192Z,75.56
2022-10-19T13:34:00.817Z,75.57
2022-10-19T13:36:31.996Z,75.55
2022-10-19T13:39:16.572Z,75.74
2022-10-19T13:41:52.603Z,75.47
2022-10-19T13:44:36.786Z,73.32
2022-10-19T13:47:28.558Z,73.99
2022-10-19T13:50:40.838Z,74.28
2022-10-19T13:53:42.102Z,75.19
2022-10-19T13:57:21.699Z,75.68
2022-10-19T14:00:23.303Z,76.55
2022-10-19T14:03:30.358Z,76.66
2022-10-19T14:06:27.549Z,76.55
2022-10-19T14:09:41.017Z,76.56
2022-10-19T14:12:18.807Z,76.12
2022-10-19T14:14:48.970Z,75.50
2022-10-19T14:17:24.303Z,75.37
2022-10-19T14:19:57.493Z,75.77
2022-10-19T14:22:31.171Z,75.28
2022-10-19T14:25:07.993Z,75.37
2022-10-19T14:27:37.553Z,74.23
2022-10-19T14:30:08.617Z,73.94
2022-10-19T14:32:37.500Z,74.70
2022-10-19T14:35:20.478Z,75.73
2022-10-19T14:37:51.664Z,75.63
2022-10-19T14:40:41.082Z,75.25
2022-10-19T14:43:23.385Z,75.85
2022-10-19T14:46:16.559Z,76.17
2022-10-19T14:48:48.754Z,76.97
2022-10-19T14:51:34.455Z,77.07
2022-10-19T14:54:10.699Z,76.81
2022-10-19T14:56:47.443Z,77.14
2022-10-19T14:59:26.342Z,77.20
2022-10-19T15:01:59.397Z,77.42
2022-10-19T15:04:32.714Z,77.43
2022-10-19T15:07:06.185Z,77.45
2022-10-19T15:09:48.390Z,77.49
2022-10-19T15:12:30.091Z,77.58
2022-10-19T15:15:00.163Z,77.56
2022-10-19T15:17:32.207Z,77.30
2022-10-19T15:20:02.074Z,76.52
2022-10-19T15:22:41.570Z,76.97
2022-10-19T15:25:38.097Z,76.63
2022-10-19T15:28:36.112Z,76.41
2022-10-19T15:31:17.817Z,76.32
2022-10-19T15:33:53.699Z,76.13
2022-10-19T15:36:24.895Z,75.75
2022-10-19T15:39:18.359Z,75.50
2022-10-19T15:41:54.170Z,75.58
2022-10-19T15:44:45.367Z,75.57
2022-10-19T15:47:27.048Z,76.01
2022-10-19T15:50:02.468Z,75.98
2022-10-19T15:52:35.439Z,75.94
2022-10-19T15:55:05.307Z,75.35
2022-10-19T15:57:39.611Z,75.34
2022-10-19T16:00:15.619Z,75.64
2022-10-19T16:02:49.603Z,75.10
2022-10-19T16:05:18.968Z,75.28
2022-10-19T16:07:49.421Z,75.93
2022-10-19T16:10:22.451Z,75.78
2022-10-19T16:12:53.055Z,75.71
2022-10-19T16:15:24.380Z,75.70
2022-10-19T16:17:56.188Z,75.29
2022-10-19T16:20:26.520Z,75.36
2022-10-19T16:22:55.520Z,75.71
2022-10-19T16:25:24.754Z,75.64
2022-10-19T16:27:54.864Z,75.74
2022-10-19T16:30:23.655Z,75.44
2022-10-19T16:32:52.706Z,75.65
2022-10-19T16:35:21.721Z,75.77
2022-10-19T16:37:50.882Z,75.84
2022-10-19T16:40:20.063Z,76.01
2022-10-19T16:42:49.072Z,76.44
2022-10-19T16:45:20.028Z,76.47
2022-10-19T16:47:51.706Z,76.12
2022-10-19T16:50:21.331Z,75.93
2022-10-19T16:53:05.754Z,75.93
2022-10-19T16:55:35.630Z,75.96
2022-10-19T16:58:09.236Z,75.86
2022-10-19T17:00:46.498Z,75.87
2022-10-19T17:03:16.380Z,75.78
2022-10-19T17:05:46.828Z,76.02
2022-10-19T17:08:16.814Z,76.12
2022-10-19T17:10:49.495Z,76.26
2022-10-19T17:13:20.918Z,76.08
2022-10-19T17:15:51.688Z,75.74
2022-10-19T17:18:21.249Z,75.75
2022-10-19T17:20:50.616Z,76.16
2022-10-19T17:23:22.122Z,76.20
2022-10-19T17:25:52.199Z,76.33
2022-10-19T17:28:24.117Z,76.45
2022-10-19T17:30:59.159Z,76.12
2022-10-19T17:33:29.240Z,76.52
2022-10-19T17:36:06.103Z,76.52
2022-10-19T17:38:35.816Z,76.80
2022-10-19T17:41:11.299Z,77.23
2022-10-19T17:43:43.421Z,76.91
2022-10-19T17:46:16.865Z,76.93
2022-10-19T17:48:47.856Z,77.02
2022-10-19T17:51:20.133Z,77.09
2022-10-19T17:53:52.989Z,77.05
2022-10-19T17:56:22.982Z,77.26
2022-10-19T17:58:54.674Z,77.26
2022-10-19T18:01:29.049Z,77.46
2022-10-19T18:03:59.166Z,77.73
2022-10-19T18:06:32.123Z,77.60
2022-10-19T18:09:04.309Z,77.88
2022-10-19T18:11:37.430Z,77.92
2022-10-19T18:14:09.655Z,77.51
2022-10-19T18:16:46.377Z,77.52
2022-10-19T18:19:17.742Z,77.23
2022-10-19T18:21:49.490Z,77.63
2022-10-19T18:24:21.653Z,77.53
2022-10-19T18:26:53.233Z,76.87
2022-10-19T18:29:26.752Z,77.10
2022-10-19T18:31:57.806Z,77.01
2022-10-19T18:34:29.488Z,77.25
2022-10-19T18:36:58.881Z,77.19
2022-10-19T18:39:28.339Z,77.18
2022-10-19T18:41:57.762Z,77.23
2022-10-19T18:44:29.512Z,76.94
2022-10-19T18:47:02.545Z,76.84
2022-10-19T18:49:32.100Z,77.27
2022-10-19T18:52:01.611Z,77.04
2022-10-19T18:54:35.434Z,77.45
2022-10-19T18:57:05.477Z,77.64
2022-10-19T18:59:35.091Z,77.66
2022-10-19T19:02:13.565Z,77.66
2022-10-19T19:04:52.120Z,77.60
2022-10-19T19:07:21.503Z,77.68
2022-10-19T19:09:55.352Z,78.01
2022-10-19T19:12:27.428Z,78.00
2022-10-19T19:14:56.788Z,77.91
2022-10-19T19:17:29.312Z,77.98
2022-10-19T19:20:00.896Z,77.82
2022-10-19T19:22:36.763Z,78.29
2022-10-19T19:25:11.681Z,78.96
2022-10-19T19:27:41.025Z,79.17
2022-10-19T19:30:12.781Z,79.40
2022-10-19T19:32:45.971Z,79.23
2022-10-19T19:35:15.228Z,79.45
2022-10-19T19:37:44.554Z,79.50
2022-10-19T19:40:17.065Z,79.50
2022-10-19T19:42:46.036Z,79.54
2022-10-19T19:45:15.542Z,79.38
2022-10-19T19:47:46.287Z,79.41
2022-10-19T19:50:18.661Z,79.46
2022-10-19T19:52:48.839Z,79.67
2022-10-19T19:55:18.350Z,79.58
2022-10-19T19:57:50.183Z,79.77
2022-10-19T20:00:19.659Z,79.64
2022-10-19T20:02:54.537Z,79.57
2022-10-19T20:05:25.662Z,79.57
2022-10-19T20:07:55.467Z,79.69
2022-10-19T20:10:24.699Z,79.64
2022-10-19T20:12:53.936Z,79.73
2022-10-19T20:15:23.575Z,79.71
2022-10-19T20:17:54.105Z,79.92
2022-10-19T20:20:25.863Z,79.78
2022-10-19T20:22:55.049Z,80.13
2022-10-19T20:25:24.268Z,80.02
2022-10-19T20:27:53.126Z,80.19
2022-10-19T20:30:22.094Z,79.93
2022-10-19T20:32:56.802Z,80.00
2022-10-19T20:35:25.725Z,79.93
2022-10-19T20:38:06.386Z,80.27
2022-10-19T20:40:35.595Z,80.20
2022-10-19T20:43:15.795Z,80.03
2022-10-19T20:45:44.710Z,80.23
2022-10-19T20:48:14.746Z,80.24
2022-10-19T20:50:43.485Z,80.07
2022-10-19T20:53:12.637Z,80.03
2022-10-19T20:55:41.478Z,80.38
2022-10-19T20:58:10.277Z,80.37
2022-10-19T21:00:39.029Z,80.34
2022-10-19T21:03:08.085Z,80.43
2022-10-19T21:05:40.735Z,80.66
2022-10-19T21:08:10.272Z,80.62
2022-10-19T21:10:38.994Z,80.76
2022-10-19T21:13:07.668Z,80.57
2022-10-19T21:15:36.521Z,80.52
2022-10-19T21:18:05.468Z,80.61
2022-10-19T21:20:34.151Z,80.78
2022-10-19T21:23:04.329Z,80.90
2022-10-19T21:25:33.173Z,81.07
2022-10-19T21:28:01.941Z,81.16
2022-10-19T21:30:30.637Z,81.19
2022-10-19T21:32:59.319Z,81.18
2022-10-19T21:35:28.269Z,81.24
2022-10-19T21:37:56.924Z,81.23
2022-10-19T21:40:27.171Z,81.20
2022-10-19T21:42:55.855Z,81.03
2022-10-19T21:45:30.337Z,81.15
2022-10-19T21:47:59.679Z,81.18
2022-10-19T21:50:28.945Z,81.02
2022-10-19T21:52:57.837Z,81.30
2022-10-19T21:55:29.683Z,81.19
2022-10-19T21:57:58.325Z,81.26
2022-10-19T22:00:27.100Z,80.83
2022-10-19T22:02:55.946Z,80.77
2022-10-19T22:05:24.814Z,80.72
2022-10-19T22:07:53.629Z,80.56
2022-10-19T22:10:22.652Z,80.70
2022-10-19T22:12:52.789Z,80.57
2022-10-19T22:15:21.743Z,80.43
2022-10-19T22:17:50.584Z,80.43
2022-10-19T22:20:19.453Z,80.47
2022-10-19T22:22:50.308Z,80.44
2022-10-19T22:25:21.730Z,80.55
2022-10-19T22:27:50.414Z,80.60
2022-10-19T22:30:20.540Z,80.78
2022-10-19T22:32:49.162Z,80.75
2022-10-19T22:35:18.165Z,80.82
2022-10-19T22:37:46.895Z,80.88
2022-10-19T22:40:15.568Z,80.86
2022-10-19T22:42:44.266Z,81.09
2022-10-19T22:45:13.233Z,81.06
2022-10-19T22:47:43.308Z,80.95
2022-10-19T22:50:12.043Z,81.00
2022-10-19T22:52:40.793Z,81.00
2022-10-19T22:55:10.438Z,80.94
2022-10-19T22:57:40.463Z,80.55
2022-10-19T23:00:11.032Z,80.44
2022-10-19T23:02:39.711Z,80.52
2022-10-19T23:05:10.843Z,80.55
2022-10-19T23:07:39.580Z,80.63
2022-10-19T23:10:09.204Z,80.57
2022-10-19T23:12:37.988Z,80.65
2022-10-19T23:15:07.853Z,80.52
2022-10-19T23:17:37.152Z,80.28
2022-10-19T23:20:07.424Z,80.30
2022-10-19T23:22:37.579Z,80.40
2022-10-19T23:25:08.862Z,80.47
2022-10-19T23:27:37.799Z,80.50
2022-10-19T23:30:08.317Z,80.63
2022-10-19T23:32:37.060Z,80.96
2022-10-19T23:35:06.817Z,81.11
2022-10-19T23:37:38.088Z,81.06
2022-10-19T23:40:08.564Z,81.14
2022-10-19T23:42:37.274Z,81.15
2022-10-19T23:45:07.434Z,81.15
2022-10-19T23:47:36.329Z,81.28
2022-10-19T23:50:06.586Z,81.38
2022-10-19T23:52:36.775Z,81.28
2022-10-19T23:55:06.787Z,81.51
2022-10-19T23:57:36.543Z,81.46
